Time;durP1;ratioP1;P1;durP2;ratioP2;P2;SDS_P1;SDS_P2;PMS_P1;PMS_P2;Temp;Humidity;BMP_temperature;BMP_pressure;BME280_temperature;BME280_humidity;BME280_pressure;Samples;Min_cycle;Max_cycle;Signal;HPM_P1;HPM_P2
2022/05/13 00:01:22;;;;;;;9.05;4.70;;;19.40;91.20;;;;;;4591488;19;20019;-29
2022/05/13 00:02:53;;;;;;;9.55;5.28;;;19.40;91.20;;;;;;4590820;19;20014;-27
2022/05/13 00:04:24;;;;;;;8.70;5.43;;;19.40;91.20;;;;;;4589009;19;20398;-28
2022/05/13 00:05:55;;;;;;;10.63;5.72;;;19.50;91.30;;;;;;4592376;19;20011;-26
2022/05/13 00:07:26;;;;;;;9.85;5.55;;;19.40;91.30;;;;;;4590867;19;20011;-28
2022/05/13 00:08:57;;;;;;;9.45;5.60;;;19.50;91.30;;;;;;4592826;19;20338;-28
2022/05/13 00:10:28;;;;;;;10.68;5.72;;;19.50;91.30;;;;;;4591761;19;20019;-29
2022/05/13 00:11:59;;;;;;;10.25;5.75;;;19.50;91.30;;;;;;4591088;19;20010;-27
2022/05/13 00:13:30;;;;;;;8.63;5.07;;;19.50;91.30;;;;;;4589198;19;20015;-28
2022/05/13 00:15:02;;;;;;;10.38;5.88;;;19.50;91.30;;;;;;4590492;19;20042;-27
2022/05/13 00:16:35;;;;;;;9.15;5.50;;;19.40;91.20;;;;;;4589690;19;20089;-28
2022/05/13 00:18:07;;;;;;;8.45;4.53;;;19.50;91.20;;;;;;4589602;19;20023;-26
2022/05/13 00:19:38;;;;;;;6.70;4.25;;;19.50;91.20;;;;;;4591521;19;20334;-28
2022/05/13 00:21:10;;;;;;;8.60;4.95;;;19.40;91.10;;;;;;4589927;19;20042;-28
2022/05/13 00:22:52;;;;;;;8.30;5.00;;;19.40;91.10;;;;;;4589190;19;20499;-25
2022/05/13 00:24:23;;;;;;;;;;;19.40;91.10;;;;;;4592645;19;20018;-27
2022/05/13 00:25:54;;;;;;;8.05;4.78;;;19.40;91.10;;;;;;4590751;19;19919;-25
2022/05/13 00:27:25;;;;;;;8.23;3.92;;;19.50;91.10;;;;;;4592138;19;20011;-26
2022/05/13 00:28:56;;;;;;;9.45;4.80;;;19.40;91.10;;;;;;4588281;19;20458;-27
2022/05/13 00:30:29;;;;;;;7.05;4.50;;;19.40;91.00;;;;;;4589776;19;20022;-28
2022/05/13 00:32:01;;;;;;;7.63;4.72;;;19.40;91.00;;;;;;4587578;19;20086;-25
2022/05/13 00:33:32;;;;;;;7.28;4.18;;;19.40;91.00;;;;;;4589714;19;20014;-27
2022/05/13 00:35:04;;;;;;;;;;;19.40;91.00;;;;;;4587282;19;20485;-28
2022/05/13 00:36:35;;;;;;;10.95;4.75;;;19.40;91.00;;;;;;4589226;19;19911;-27
2022/05/13 00:38:07;;;;;;;9.07;4.70;;;19.40;91.00;;;;;;4588493;19;20018;-29
2022/05/13 00:39:37;;;;;;;7.07;4.60;;;19.40;91.00;;;;;;4590328;19;20027;-29
2022/05/13 00:41:09;;;;;;;8.88;5.07;;;19.40;91.00;;;;;;4587079;19;20378;-27
2022/05/13 00:42:40;;;;;;;8.23;4.70;;;19.40;91.00;;;;;;4589876;19;20026;-33
2022/05/13 00:44:11;;;;;;;7.78;4.97;;;19.40;91.00;;;;;;4588987;19;20036;-28
2022/05/13 00:45:42;;;;;;;8.00;4.95;;;19.40;91.00;;;;;;4589730;19;20037;-29
2022/05/13 00:47:13;;;;;;;9.25;4.72;;;19.40;91.00;;;;;;4589451;19;20007;-26
2022/05/13 00:48:44;;;;;;;8.07;4.75;;;19.40;91.00;;;;;;4593969;19;20019;-28
2022/05/13 00:50:15;;;;;;;8.40;5.00;;;19.40;91.00;;;;;;4593072;19;20015;-29
2022/05/13 00:51:46;;;;;;;8.57;5.32;;;19.40;91.00;;;;;;4593067;19;20011;-27
2022/05/13 00:53:18;;;;;;;;;;;19.40;91.00;;;;;;4594752;19;20480;-28
2022/05/13 00:54:49;;;;;;;8.00;4.15;;;19.40;91.00;;;;;;4591489;19;19943;-28
2022/05/13 00:56:20;;;;;;;9.35;5.28;;;19.40;91.00;;;;;;4594278;19;20007;-29
2022/05/13 00:57:51;;;;;;;7.78;4.88;;;19.40;91.10;;;;;;4593807;19;20007;-25
2022/05/13 00:59:24;;;;;;;8.30;4.28;;;19.30;91.00;;;;;;4591726;19;20246;-27
2022/05/13 01:00:55;;;;;;;7.35;4.43;;;19.40;91.00;;;;;;4594062;19;20019;-30
2022/05/13 01:02:26;;;;;;;7.60;4.53;;;19.30;91.00;;;;;;4594154;19;20025;-29
2022/05/13 01:04:09;;;;;;;7.55;5.13;;;19.40;91.00;;;;;;4595103;19;20027;-24
2022/05/13 01:05:41;;;;;;;9.40;5.30;;;19.40;91.00;;;;;;4594801;19;20446;-27
2022/05/13 01:07:15;;;;;;;7.47;4.85;;;19.40;91.00;;;;;;4594202;19;20529;-28
2022/05/13 01:08:47;;;;;;;7.80;4.82;;;19.40;91.00;;;;;;4592849;19;20359;-27
2022/05/13 01:10:21;;;;;;;7.40;4.53;;;19.30;90.90;;;;;;4591970;19;20497;-28
2022/05/13 01:11:54;;;;;;;7.47;4.50;;;19.40;91.00;;;;;;4592268;19;20015;-28
2022/05/13 01:13:28;;;;;;;7.38;4.28;;;19.40;91.00;;;;;;4593881;19;20394;-26
2022/05/13 01:15:08;;;;;;;7.45;4.88;;;19.30;90.90;;;;;;4591498;19;20070;-27
2022/05/13 01:18:31;;;;;;;7.97;4.93;;;19.30;90.90;;;;;;4592862;19;20045;-26
2022/05/13 01:20:03;;;;;;;8.93;5.13;;;19.30;90.90;;;;;;4593240;19;20560;-30
2022/05/13 01:21:34;;;;;;;10.40;6.10;;;19.30;90.90;;;;;;4593559;19;20015;-28
2022/05/13 01:23:10;;;;;;;8.52;5.80;;;19.30;90.90;;;;;;4593363;19;20018;-33
2022/05/13 01:24:41;;;;;;;9.25;5.70;;;19.30;90.90;;;;;;4592151;19;20010;-29
2022/05/13 01:26:17;;;;;;;11.43;6.25;;;19.30;90.90;;;;;;4592435;19;20025;-28
2022/05/13 01:27:48;;;;;;;8.52;5.13;;;19.30;90.90;;;;;;4592329;19;20022;-27
2022/05/13 01:29:19;;;;;;;9.40;6.00;;;19.30;90.90;;;;;;4592735;19;20015;-26
2022/05/13 01:30:55;;;;;;;10.45;5.80;;;19.30;90.90;;;;;;4592646;19;20002;-30
2022/05/13 01:32:26;;;;;;;9.30;5.47;;;19.30;90.90;;;;;;4593324;19;20018;-27
2022/05/13 01:34:02;;;;;;;10.18;6.75;;;19.30;90.90;;;;;;4592009;19;20007;-29
2022/05/13 01:35:33;;;;;;;10.05;5.95;;;19.30;90.90;;;;;;4592301;19;20007;-31
2022/05/13 01:37:04;;;;;;;11.20;6.50;;;19.30;90.90;;;;;;4591671;19;20031;-30
2022/05/13 01:38:37;;;;;;;9.23;6.05;;;19.30;90.80;;;;;;4592210;19;20010;-28
2022/05/13 01:40:08;;;;;;;10.13;6.00;;;19.40;90.70;;;;;;4593321;19;20007;-27
2022/05/13 01:41:39;;;;;;;10.63;6.85;;;19.40;90.60;;;;;;4592720;19;20015;-28
2022/05/13 01:43:11;;;;;;;9.88;6.13;;;19.50;90.50;;;;;;4592632;19;20428;-30
2022/05/13 01:44:42;;;;;;;10.35;6.47;;;19.60;90.40;;;;;;4593192;19;20011;-28
2022/05/13 01:46:13;;;;;;;9.85;6.43;;;19.70;90.30;;;;;;4593250;19;20062;-28
2022/05/13 01:47:43;;;;;;;9.18;5.90;;;19.80;90.20;;;;;;4592646;19;20011;-30
2022/05/13 01:49:15;;;;;;;9.90;6.03;;;19.90;90.10;;;;;;4592783;19;20015;-30
2022/05/13 01:50:46;;;;;;;9.50;5.90;;;19.90;90.00;;;;;;4592326;19;20371;-28
2022/05/13 01:52:17;;;;;;;;;;;20.00;89.80;;;;;;4592131;19;19988;-27
2022/05/13 01:53:48;;;;;;;;;;;20.00;89.60;;;;;;4593078;19;20245;-30
2022/05/13 01:55:19;;;;;;;;;;;20.10;89.50;;;;;;4592086;19;19923;-29
2022/05/13 01:56:50;;;;;;;;;;;20.10;89.40;;;;;;4593594;19;19910;-29
2022/05/13 01:58:22;;;;;;;;;;;20.10;89.30;;;;;;4591260;19;19915;-28
2022/05/13 01:59:54;;;;;;;;;;;20.20;89.30;;;;;;4590373;19;20298;-28
2022/05/13 02:01:25;;;;;;;9.18;5.40;;;20.20;89.20;;;;;;4591907;19;19932;-29
2022/05/13 02:04:45;;;;;;;9.23;5.15;;;20.30;89.00;;;;;;4592448;19;20054;-29
2022/05/13 02:06:22;;;;;;;7.60;5.20;;;20.30;89.00;;;;;;4589806;19;20511;-29
2022/05/13 02:07:54;;;;;;;8.80;5.53;;;20.40;88.90;;;;;;4591941;19;20015;-28
2022/05/13 02:09:25;;;;;;;7.25;4.97;;;20.40;88.80;;;;;;4591452;19;20017;-28
2022/05/13 02:10:56;;;;;;;6.82;4.70;;;20.40;88.80;;;;;;4591627;19;20518;-29
2022/05/13 02:12:27;;;;;;;6.78;4.50;;;20.40;88.70;;;;;;4594065;19;20015;-26
2022/05/13 02:13:59;;;;;;;7.45;4.53;;;20.50;88.80;;;;;;4592519;19;20017;-31
2022/05/13 02:15:30;;;;;;;8.35;4.97;;;20.50;88.80;;;;;;4591366;19;20024;-29
2022/05/13 02:17:01;;;;;;;7.38;4.93;;;20.50;88.90;;;;;;4591090;19;20015;-30
2022/05/13 02:18:32;;;;;;;8.70;4.75;;;20.50;89.00;;;;;;4592275;19;20034;-28
2022/05/13 02:20:07;;;;;;;7.25;4.97;;;20.50;89.10;;;;;;4592382;19;20463;-27
2022/05/13 02:21:38;;;;;;;6.45;4.50;;;20.40;89.10;;;;;;4592416;19;20465;-28
2022/05/13 02:23:09;;;;;;;8.70;5.50;;;20.40;89.30;;;;;;4591637;19;20014;-28
2022/05/13 02:24:40;;;;;;;8.13;5.47;;;20.40;89.40;;;;;;4592144;19;20013;-26
2022/05/13 02:26:12;;;;;;;7.80;5.53;;;20.40;89.50;;;;;;4592360;19;20009;-29
2022/05/13 02:27:43;;;;;;;8.40;5.07;;;20.40;89.70;;;;;;4591981;19;20022;-25
2022/05/13 02:29:14;;;;;;;9.45;5.50;;;20.30;89.80;;;;;;4591669;19;20457;-26
2022/05/13 02:30:45;;;;;;;7.22;5.68;;;20.30;89.90;;;;;;4591796;19;20007;-27
2022/05/13 02:32:16;;;;;;;8.52;4.95;;;20.30;90.00;;;;;;4590152;19;20465;-28
2022/05/13 02:33:47;;;;;;;8.63;5.28;;;20.30;90.00;;;;;;4590558;19;20062;-29
2022/05/13 02:35:21;;;;;;;7.38;4.95;;;20.20;90.00;;;;;;4590096;19;20330;-29
2022/05/13 02:36:52;;;;;;;7.63;5.07;;;20.20;90.10;;;;;;4591873;19;20033;-27
2022/05/13 02:38:23;;;;;;;6.80;4.85;;;20.20;90.10;;;;;;4590935;19;20019;-27
2022/05/13 02:39:54;;;;;;;7.15;4.35;;;20.20;90.10;;;;;;4591042;19;20014;-27
2022/05/13 02:41:25;;;;;;;7.75;4.75;;;20.20;90.20;;;;;;4591861;19;20007;-29
2022/05/13 02:42:56;;;;;;;9.15;4.82;;;20.10;90.20;;;;;;4590632;19;20006;-27
2022/05/13 02:44:27;;;;;;;7.18;4.90;;;20.10;90.20;;;;;;4591507;19;20074;-27
2022/05/13 02:45:58;;;;;;;6.05;4.30;;;20.10;90.20;;;;;;4591446;19;20017;-28
2022/05/13 02:47:29;;;;;;;6.63;4.45;;;20.10;90.30;;;;;;4591667;19;20030;-27
2022/05/13 02:49:00;;;;;;;5.40;3.63;;;20.00;90.30;;;;;;4591923;19;20074;-27
2022/05/13 02:50:32;;;;;;;6.47;4.75;;;20.00;90.30;;;;;;4590149;19;20015;-27
2022/05/13 02:52:03;;;;;;;6.53;4.30;;;20.00;90.30;;;;;;4588922;19;20044;-28
2022/05/13 02:53:34;;;;;;;6.05;4.32;;;20.00;90.30;;;;;;4590526;19;20027;-27
2022/05/13 02:55:06;;;;;;;6.25;3.95;;;20.00;90.40;;;;;;4591031;19;20500;-26
2022/05/13 02:56:38;;;;;;;7.95;4.55;;;20.00;90.40;;;;;;4590682;19;20017;-28
2022/05/13 02:58:09;;;;;;;6.22;4.38;;;20.00;90.40;;;;;;4591409;19;20074;-25
2022/05/13 02:59:40;;;;;;;6.43;3.97;;;19.90;90.40;;;;;;4591678;19;20019;-28
2022/05/13 03:01:11;;;;;;;6.03;4.22;;;19.90;90.40;;;;;;4590959;19;20024;-29
2022/05/13 03:02:43;;;;;;;7.63;4.47;;;19.90;90.40;;;;;;4590946;19;20351;-27
2022/05/13 03:04:14;;;;;;;7.28;4.72;;;19.90;90.40;;;;;;4591275;19;20011;-26
2022/05/13 03:05:45;;;;;;;7.15;4.80;;;19.90;90.40;;;;;;4591066;19;20014;-26
2022/05/13 03:07:16;;;;;;;6.25;4.75;;;19.90;90.70;;;;;;4590151;19;20382;-25
2022/05/13 03:08:48;;;;;;;;;;;19.90;90.40;;;;;;4591298;19;20026;-27
2022/05/13 03:10:19;;;;;;;7.30;4.78;;;19.90;90.40;;;;;;4590043;19;20326;-26
2022/05/13 03:11:51;;;;;;;7.07;4.57;;;19.90;90.50;;;;;;4591565;19;20007;-26
2022/05/13 03:13:22;;;;;;;6.35;4.35;;;19.80;90.40;;;;;;4591031;19;20018;-27
2022/05/13 03:14:54;;;;;;;7.63;5.00;;;19.80;90.40;;;;;;4588931;19;20018;-29
2022/05/13 03:16:25;;;;;;;7.70;5.07;;;19.80;90.40;;;;;;4590053;19;20015;-32
2022/05/13 03:17:56;;;;;;;7.07;4.20;;;19.80;90.50;;;;;;4589716;19;20012;-28
2022/05/13 03:19:27;;;;;;;7.38;4.88;;;19.80;90.50;;;;;;4590265;19;20011;-28
2022/05/13 03:20:58;;;;;;;6.80;4.72;;;19.80;90.50;;;;;;4589869;19;20032;-26
2022/05/13 03:22:29;;;;;;;8.40;4.47;;;19.80;90.50;;;;;;4590479;19;20014;-29
2022/05/13 03:24:00;;;;;;;6.97;4.10;;;19.80;90.50;;;;;;4589955;19;20032;-27
2022/05/13 03:25:31;;;;;;;7.57;4.50;;;19.80;90.50;;;;;;4590332;19;20014;-26
2022/05/13 03:27:04;;;;;;;6.80;4.15;;;19.80;90.50;;;;;;4590927;19;20042;-26
2022/05/13 03:28:35;;;;;;;6.15;4.05;;;19.80;90.60;;;;;;4590715;19;20042;-28
2022/05/13 03:30:06;;;;;;;6.93;4.45;;;19.80;90.60;;;;;;4590690;19;20007;-29
2022/05/13 03:31:37;;;;;;;6.60;4.18;;;19.70;90.60;;;;;;4588485;19;20014;-27
2022/05/13 03:33:09;;;;;;;7.22;4.80;;;19.70;90.60;;;;;;4590397;19;20101;-27
2022/05/13 03:34:40;;;;;;;7.38;4.90;;;19.70;90.60;;;;;;4590622;19;20034;-26
2022/05/13 03:36:12;;;;;;;7.55;5.13;;;19.70;90.60;;;;;;4590250;19;20014;-28
2022/05/13 03:37:43;;;;;;;6.72;4.82;;;19.70;90.90;;;;;;4590071;19;20010;-31
2022/05/13 03:39:14;;;;;;;7.50;4.70;;;19.70;90.60;;;;;;4590558;19;20014;-30
2022/05/13 03:40:46;;;;;;;7.35;4.75;;;19.70;90.70;;;;;;4590510;19;20448;-29
2022/05/13 03:42:17;;;;;;;;;;;19.70;90.70;;;;;;4590214;19;20011;-25
2022/05/13 03:43:48;;;;;;;7.97;4.67;;;19.70;90.70;;;;;;4590096;19;19910;-26
2022/05/13 03:45:19;;;;;;;6.53;4.57;;;19.70;90.70;;;;;;4590998;19;20478;-27
2022/05/13 03:46:50;;;;;;;8.20;4.70;;;19.70;90.70;;;;;;4589386;19;20390;-28
2022/05/13 03:48:21;;;;;;;6.22;4.53;;;19.70;90.70;;;;;;4589692;19;20013;-27
2022/05/13 03:49:52;;;;;;;7.03;4.75;;;19.70;90.70;;;;;;4590649;19;20010;-28
2022/05/13 03:51:23;;;;;;;7.03;4.20;;;19.70;90.70;;;;;;4590211;19;20089;-27
2022/05/13 03:52:54;;;;;;;7.20;5.18;;;19.70;90.70;;;;;;4589066;19;20553;-32
2022/05/13 03:54:25;;;;;;;6.45;4.53;;;19.70;90.70;;;;;;4589486;19;20017;-27
2022/05/13 03:55:56;;;;;;;8.32;5.18;;;19.70;90.80;;;;;;4589119;19;20046;-29
2022/05/13 03:57:28;;;;;;;8.32;4.93;;;19.70;90.70;;;;;;4589769;19;20018;-29
2022/05/13 03:58:59;;;;;;;7.68;4.95;;;19.70;90.80;;;;;;4589916;19;20017;-28
2022/05/13 04:00:30;;;;;;;6.60;4.93;;;19.70;90.80;;;;;;4590580;19;20007;-28
2022/05/13 04:02:02;;;;;;;7.22;4.97;;;19.70;90.80;;;;;;4589216;19;20015;-28
2022/05/13 04:03:33;;;;;;;5.93;4.63;;;19.70;90.80;;;;;;4589694;19;20464;-28
2022/05/13 04:08:56;;;;;;;6.55;3.97;;;19.70;90.90;;;;;;4589226;19;20018;-26
2022/05/13 04:10:27;;;;;;;6.63;4.25;;;19.70;90.90;;;;;;4590044;19;20015;-27
2022/05/13 04:17:27;;;;;;;5.82;3.42;;;19.70;91.00;;;;;;4588352;19;20018;-28
2022/05/13 04:18:58;;;;;;;5.28;3.35;;;19.70;91.00;;;;;;4589911;19;20048;-28
2022/05/13 04:20:29;;;;;;;4.40;2.72;;;19.70;91.00;;;;;;4590644;19;20005;-28
2022/05/13 04:22:01;;;;;;;5.15;3.42;;;19.70;91.10;;;;;;4589866;19;20096;-27
2022/05/13 04:23:33;;;;;;;4.55;2.53;;;19.70;91.10;;;;;;4594606;19;20006;-30
2022/05/13 04:25:05;;;;;;;4.70;2.92;;;19.70;91.10;;;;;;4594819;19;20489;-29
2022/05/13 04:26:36;;;;;;;;;;;19.70;91.20;;;;;;4594199;19;20014;-28
2022/05/13 04:28:07;;;;;;;5.03;3.00;;;19.70;91.20;;;;;;4593810;19;19922;-29
2022/05/13 04:29:38;;;;;;;5.22;2.90;;;19.70;91.20;;;;;;4594299;19;20465;-28
2022/05/13 04:31:10;;;;;;;3.78;2.70;;;19.70;91.20;;;;;;4593962;19;20500;-30
2022/05/13 04:32:41;;;;;;;4.25;2.75;;;19.70;91.30;;;;;;4593035;19;20018;-28
2022/05/13 04:34:12;;;;;;;4.95;2.90;;;19.70;91.40;;;;;;4593772;19;20003;-29
2022/05/13 04:35:43;;;;;;;5.97;3.40;;;19.70;91.40;;;;;;4593257;19;20010;-28
2022/05/13 04:37:14;;;;;;;4.90;2.90;;;19.70;91.50;;;;;;4592998;19;20033;-26
2022/05/13 04:38:45;;;;;;;4.30;2.92;;;19.70;91.40;;;;;;4593795;19;20014;-26
2022/05/13 04:40:16;;;;;;;4.28;2.88;;;19.70;91.40;;;;;;4593998;19;20014;-28
2022/05/13 04:43:37;;;;;;;4.90;3.22;;;19.70;91.40;;;;;;4593790;19;20371;-31
2022/05/13 04:45:10;;;;;;;6.03;3.28;;;19.70;91.40;;;;;;4594220;19;20014;-27
2022/05/13 04:46:41;;;;;;;4.45;2.50;;;19.70;91.50;;;;;;4592640;19;20025;-30
2022/05/13 04:48:15;;;;;;;4.15;2.72;;;19.70;91.50;;;;;;4593449;19;20022;-28
2022/05/13 04:49:46;;;;;;;6.43;3.00;;;19.70;91.40;;;;;;4594313;19;20006;-28
2022/05/13 04:51:17;;;;;;;4.40;3.00;;;19.70;91.50;;;;;;4594906;19;20021;-28
2022/05/13 04:52:48;;;;;;;5.63;2.72;;;19.70;91.50;;;;;;4593566;19;20027;-29
2022/05/13 04:54:19;;;;;;;4.45;2.90;;;19.70;91.50;;;;;;4593414;19;20019;-28
2022/05/13 04:55:51;;;;;;;5.65;3.13;;;19.70;91.60;;;;;;4594233;19;20010;-28
2022/05/13 04:57:22;;;;;;;3.58;2.42;;;19.70;91.60;;;;;;4592370;19;20021;-29
2022/05/13 04:58:53;;;;;;;4.47;3.00;;;19.70;91.60;;;;;;4594137;19;20018;-26
2022/05/13 05:00:24;;;;;;;4.28;2.65;;;19.60;91.70;;;;;;4592494;19;20384;-31
2022/05/13 05:01:55;;;;;;;3.85;2.40;;;19.60;91.80;;;;;;4593526;19;20031;-26
2022/05/13 05:03:29;;;;;;;4.90;2.45;;;19.60;91.80;;;;;;4593217;19;20011;-28
2022/05/13 05:05:00;;;;;;;3.33;2.42;;;19.60;91.80;;;;;;4593653;19;20375;-27
2022/05/13 05:06:31;;;;;;;3.83;2.45;;;19.60;91.80;;;;;;4593739;19;20015;-32
2022/05/13 05:08:02;;;;;;;;;;;19.60;91.80;;;;;;4594661;19;20011;-29
2022/05/13 05:09:35;;;;;;;3.55;2.35;;;19.70;91.80;;;;;;4593572;19;20241;-28
2022/05/13 05:11:07;;;;;;;4.28;2.50;;;19.60;91.80;;;;;;4594740;19;20340;-31
2022/05/13 05:12:38;;;;;;;4.38;2.53;;;19.60;91.90;;;;;;4594015;19;20015;-29
2022/05/13 05:14:09;;;;;;;4.45;2.67;;;19.60;91.90;;;;;;4593271;19;20018;-30
2022/05/13 05:15:40;;;;;;;4.47;2.50;;;19.60;91.90;;;;;;4591911;19;20007;-28
2022/05/13 05:17:11;;;;;;;3.88;2.20;;;19.70;91.80;;;;;;4592365;19;20022;-29
2022/05/13 05:18:42;;;;;;;4.07;2.20;;;19.70;91.80;;;;;;4594220;19;20006;-29
2022/05/13 05:20:15;;;;;;;4.57;3.35;;;19.80;91.70;;;;;;4593280;19;20014;-27
2022/05/13 05:21:46;;;;;;;4.10;2.35;;;19.90;91.60;;;;;;4593193;19;20024;-28
2022/05/13 05:23:21;;;;;;;4.50;2.50;;;20.00;91.50;;;;;;4593925;19;20456;-27
2022/05/13 05:24:52;;;;;;;4.43;2.55;;;19.90;91.50;;;;;;4593660;19;20630;-29
2022/05/13 05:26:24;;;;;;;3.70;2.17;;;20.00;91.60;;;;;;4592944;19;20086;-28
2022/05/13 05:27:56;;;;;;;4.43;2.55;;;20.00;91.40;;;;;;4593602;19;20022;-28
2022/05/13 05:29:27;;;;;;;3.92;2.25;;;20.00;91.40;;;;;;4593232;19;20034;-29
2022/05/13 05:31:00;;;;;;;3.97;2.35;;;20.10;91.40;;;;;;4593096;19;20341;-26
2022/05/13 05:32:31;;;;;;;3.50;2.08;;;20.10;91.30;;;;;;4593313;19;20038;-27
2022/05/13 05:34:02;;;;;;;4.00;2.25;;;20.10;91.30;;;;;;4591441;19;20018;-25
2022/05/13 05:35:33;;;;;;;3.83;2.30;;;20.10;91.30;;;;;;4591019;19;20068;-30
2022/05/13 05:37:04;;;;;;;2.90;1.70;;;20.20;91.30;;;;;;4592745;19;20030;-29
2022/05/13 05:38:36;;;;;;;2.92;1.88;;;20.30;92.00;;;;;;4592772;19;20069;-28
2022/05/13 05:40:09;;;;;;;4.70;2.53;;;20.50;91.90;;;;;;4593360;19;20033;-29
2022/05/13 05:41:40;;;;;;;3.80;2.30;;;20.60;91.60;;;;;;4590729;19;20096;-28
2022/05/13 05:43:13;;;;;;;4.15;1.98;;;20.80;91.50;;;;;;4590275;19;20018;-29
2022/05/13 05:44:44;;;;;;;3.50;1.98;;;20.90;91.20;;;;;;4594576;19;20014;-26
2022/05/13 05:46:15;;;;;;;4.53;2.03;;;21.00;91.10;;;;;;4592616;19;20010;-25
2022/05/13 05:47:47;;;;;;;4.10;2.30;;;21.00;91.00;;;;;;4593439;19;20018;-27
2022/05/13 05:49:19;;;;;;;3.30;2.15;;;21.10;90.70;;;;;;4594048;19;20043;-30
2022/05/13 05:50:55;;;;;;;6.18;2.42;;;21.20;90.70;;;;;;4591739;19;20019;-28
2022/05/13 05:52:27;;;;;;;4.35;1.92;;;21.30;90.60;;;;;;4593242;19;20034;-27
2022/05/13 05:57:37;;;;;;;6.05;2.75;;;21.40;90.10;;;;;;4592718;19;20086;-26
2022/05/13 05:59:08;;;;;;;7.70;2.85;;;21.50;90.30;;;;;;4592446;19;20007;-28
2022/05/13 06:00:42;;;;;;;5.65;2.90;;;21.50;90.20;;;;;;4592597;19;20342;-27
2022/05/13 06:02:14;;;;;;;5.00;2.90;;;21.50;90.10;;;;;;4591432;19;20013;-27
2022/05/13 06:03:45;;;;;;;4.93;2.65;;;21.50;90.10;;;;;;4592050;19;20035;-28
2022/05/13 06:05:16;;;;;;;5.60;2.67;;;21.50;90.00;;;;;;4592341;19;20010;-29
2022/05/13 06:06:47;;;;;;;5.55;3.28;;;21.50;90.00;;;;;;4591604;19;20350;-26
2022/05/13 06:08:18;;;;;;;6.03;3.35;;;21.50;90.00;;;;;;4591114;19;20011;-29
2022/05/13 06:09:49;;;;;;;5.85;2.95;;;21.40;90.00;;;;;;4591762;19;20015;-29
2022/05/13 06:11:23;;;;;;;9.82;3.10;;;21.40;89.80;;;;;;4591891;19;20528;-26
2022/05/13 06:12:54;;;;;;;9.93;3.53;;;21.40;90.00;;;;;;4592846;19;20445;-28
2022/05/13 06:14:26;;;;;;;6.82;3.45;;;21.50;90.50;;;;;;4591836;19;20020;-26
2022/05/13 06:15:58;;;;;;;4.57;3.03;;;21.40;90.30;;;;;;4590951;19;20033;-28
2022/05/13 06:17:29;;;;;;;6.55;3.65;;;21.40;90.10;;;;;;4590657;19;20022;-29
2022/05/13 06:19:00;;;;;;;4.25;2.65;;;21.40;90.20;;;;;;4592172;19;20010;-26
2022/05/13 06:20:31;;;;;;;5.30;3.00;;;21.40;90.00;;;;;;4591849;19;20011;-27
2022/05/13 06:22:03;;;;;;;6.93;3.13;;;21.40;90.10;;;;;;4590941;19;20007;-29
2022/05/13 06:23:35;;;;;;;;;;;21.40;90.00;;;;;;4592405;19;20034;-31
2022/05/13 06:25:10;;;;;;;;;;;21.30;89.80;;;;;;4593491;19;19930;-30
2022/05/13 06:26:41;;;;;;;5.35;2.58;;;21.30;89.70;;;;;;4591753;19;20321;-29
2022/05/13 06:28:12;;;;;;;6.65;3.53;;;21.30;90.00;;;;;;4592264;19;20093;-30
2022/05/13 06:29:43;;;;;;;9.43;3.38;;;21.30;90.00;;;;;;4592748;19;20002;-29
2022/05/13 06:31:16;;;;;;;7.80;3.13;;;21.30;90.00;;;;;;4591120;19;20029;-31
2022/05/13 06:32:47;;;;;;;7.50;2.90;;;21.30;90.00;;;;;;4591844;19;20011;-27
2022/05/13 06:34:19;;;;;;;5.93;3.40;;;21.30;89.90;;;;;;4591607;19;20335;-29
2022/05/13 06:35:50;;;;;;;7.88;3.90;;;21.30;90.00;;;;;;4591893;19;20017;-27
2022/05/13 06:37:20;;;;;;;8.38;3.13;;;21.30;90.00;;;;;;4590285;19;20014;-26
2022/05/13 06:38:52;;;;;;;7.47;4.20;;;21.30;89.90;;;;;;4591305;19;20010;-28
2022/05/13 06:40:24;;;;;;;6.25;3.53;;;21.20;90.00;;;;;;4591775;19;20335;-26
2022/05/13 06:41:55;;;;;;;8.07;4.38;;;21.20;90.00;;;;;;4590904;19;20011;-28
2022/05/13 06:43:26;;;;;;;5.97;3.20;;;21.20;90.00;;;;;;4591081;19;20108;-26
2022/05/13 06:44:57;;;;;;;8.10;3.80;;;21.30;90.00;;;;;;4590083;19;20003;-28
2022/05/13 06:46:28;;;;;;;5.78;3.55;;;21.20;89.90;;;;;;4591777;19;20040;-26
2022/05/13 06:48:02;;;;;;;8.27;3.97;;;21.20;89.90;;;;;;4592051;19;20011;-27
2022/05/13 06:49:33;;;;;;;10.52;5.50;;;21.20;90.00;;;;;;4590369;19;20025;-26
2022/05/13 06:51:04;;;;;;;10.57;4.88;;;21.20;90.10;;;;;;4590152;19;20021;-26
2022/05/13 06:52:36;;;;;;;11.40;4.90;;;21.20;90.10;;;;;;4590952;19;20011;-27
2022/05/13 06:54:09;;;;;;;6.57;3.90;;;21.20;90.10;;;;;;4591075;19;20010;-29
2022/05/13 06:55:40;;;;;;;10.85;4.43;;;21.20;90.10;;;;;;4589936;19;20384;-28
2022/05/13 06:57:11;;;;;;;10.85;3.85;;;21.20;90.20;;;;;;4591255;19;20014;-29
2022/05/13 06:58:42;;;;;;;10.85;5.30;;;21.20;90.20;;;;;;4591799;19;20044;-27
2022/05/13 07:00:14;;;;;;;9.63;4.13;;;21.20;90.20;;;;;;4590903;19;20015;-28
2022/05/13 07:01:45;;;;;;;6.35;3.63;;;21.20;90.10;;;;;;4590070;19;20010;-26
2022/05/13 07:03:16;;;;;;;6.80;3.28;;;21.20;90.10;;;;;;4588702;19;20007;-26
2022/05/13 07:04:48;;;;;;;7.18;3.03;;;21.20;90.10;;;;;;4590287;19;20021;-29
2022/05/13 07:06:19;;;;;;;7.22;3.20;;;21.20;90.40;;;;;;4589720;19;20014;-28
2022/05/13 07:07:50;;;;;;;7.85;3.15;;;21.20;90.20;;;;;;4590712;19;20392;-29
2022/05/13 07:09:21;;;;;;;7.47;3.00;;;21.10;90.20;;;;;;4591065;19;20376;-29
2022/05/13 07:10:53;;;;;;;5.70;2.95;;;21.10;90.20;;;;;;4590703;19;20024;-32
2022/05/13 07:12:24;;;;;;;4.10;2.15;;;21.10;90.10;;;;;;4589591;19;20334;-27
2022/05/13 07:13:55;;;;;;;5.72;3.38;;;21.10;90.10;;;;;;4590877;19;20017;-28
2022/05/13 07:15:26;;;;;;;4.40;2.50;;;21.10;90.20;;;;;;4587837;19;20010;-31
2022/05/13 07:16:57;;;;;;;;;;;21.10;90.10;;;;;;4590317;19;20017;-30
2022/05/13 07:18:28;;;;;;;4.47;2.00;;;21.10;90.00;;;;;;4590686;19;19937;-29
2022/05/13 07:19:59;;;;;;;6.70;2.67;;;21.20;90.00;;;;;;4590383;19;20019;-29
2022/05/13 07:21:30;;;;;;;4.32;2.45;;;21.20;90.00;;;;;;4591373;19;20440;-28
2022/05/13 07:23:01;;;;;;;4.05;2.22;;;21.40;89.90;;;;;;4590716;19;20036;-31
2022/05/13 07:24:35;;;;;;;4.57;2.55;;;21.40;89.30;;;;;;4590975;19;20075;-27
2022/05/13 07:26:06;;;;;;;5.63;2.17;;;21.60;89.20;;;;;;4590624;19;20014;-28
2022/05/13 07:27:37;;;;;;;6.35;2.97;;;21.60;88.80;;;;;;4590580;19;20011;-27
2022/05/13 07:29:08;;;;;;;6.43;2.50;;;21.70;88.70;;;;;;4589549;19;20018;-27
2022/05/13 07:30:39;;;;;;;6.30;2.72;;;21.70;88.60;;;;;;4589419;19;20031;-27
2022/05/13 07:32:10;;;;;;;4.85;2.65;;;21.80;89.00;;;;;;4589043;19;20017;-27
2022/05/13 07:33:41;;;;;;;8.05;2.80;;;21.80;88.50;;;;;;4590622;19;20031;-28
2022/05/13 07:35:12;;;;;;;5.93;2.92;;;21.80;88.80;;;;;;4589936;19;20015;-29
2022/05/13 07:36:45;;;;;;;7.72;2.85;;;21.80;89.00;;;;;;4590608;19;20014;-25
2022/05/13 07:38:17;;;;;;;3.08;1.45;;;21.80;89.10;;;;;;4590606;19;20010;-27
2022/05/13 07:41:37;;;;;;;1.80;1.10;;;21.80;88.30;;;;;;4590085;19;20048;-30
2022/05/13 07:43:08;;;;;;;2.50;1.65;;;21.60;88.50;;;;;;4590651;19;20528;-29
2022/05/13 07:44:39;;;;;;;2.17;1.38;;;21.50;89.20;;;;;;4590979;19;20014;-28
2022/05/13 07:46:11;;;;;;;2.97;1.63;;;21.40;89.20;;;;;;4590216;19;20031;-28
2022/05/13 07:47:42;;;;;;;2.55;1.42;;;21.40;89.40;;;;;;4589341;19;20099;-28
2022/05/13 07:49:15;;;;;;;2.67;1.25;;;21.30;89.50;;;;;;4590276;19;20062;-28
2022/05/13 07:50:46;;;;;;;2.47;1.10;;;21.30;90.00;;;;;;4587810;19;20466;-29
2022/05/13 07:52:18;;;;;;;2.20;1.30;;;21.30;89.60;;;;;;4589330;19;20037;-31
2022/05/13 07:53:50;;;;;;;2.28;1.00;;;21.10;90.00;;;;;;4590363;19;20011;-28
2022/05/13 07:55:21;;;;;;;2.58;1.15;;;21.00;90.30;;;;;;4589879;19;20015;-29
2022/05/13 07:56:52;;;;;;;1.92;1.10;;;20.90;90.50;;;;;;4588239;19;20011;-29
2022/05/13 07:58:23;;;;;;;3.55;1.27;;;20.90;90.70;;;;;;4589917;19;20037;-29
2022/05/13 08:01:43;;;;;;;2.72;1.33;;;20.80;90.70;;;;;;4590615;19;20468;-30
2022/05/13 08:03:15;;;;;;;1.58;0.85;;;20.80;90.70;;;;;;4589856;19;20365;-26
2022/05/13 08:04:46;;;;;;;2.17;1.10;;;20.70;90.80;;;;;;4589881;19;20509;-28
2022/05/13 08:06:18;;;;;;;2.47;1.17;;;20.60;90.80;;;;;;4590255;19;20021;-26
2022/05/13 08:08:00;;;;;;;2.50;1.27;;;20.60;91.00;;;;;;4590072;19;20527;-27
2022/05/13 08:09:31;;;;;;;1.90;1.02;;;20.60;90.70;;;;;;4590182;19;20010;-26
2022/05/13 08:11:04;;;;;;;1.85;0.75;;;20.50;90.60;;;;;;4589735;19;20381;-28
2022/05/13 08:12:35;;;;;;;2.13;1.02;;;20.40;90.70;;;;;;4588637;19;20023;-26
2022/05/13 08:14:06;;;;;;;1.42;1.00;;;20.40;90.40;;;;;;4589468;19;20082;-28
2022/05/13 08:15:38;;;;;;;2.78;1.15;;;20.50;90.90;;;;;;4589003;19;20099;-27
2022/05/13 08:17:09;;;;;;;;;;;20.50;90.30;;;;;;4588558;19;20484;-29
2022/05/13 08:18:41;;;;;;;1.37;0.80;;;20.40;90.10;;;;;;4589550;19;19926;-28
2022/05/13 08:20:13;;;;;;;1.92;0.93;;;20.40;90.30;;;;;;4590159;19;20452;-28
2022/05/13 08:21:44;;;;;;;1.88;0.90;;;20.40;90.00;;;;;;4589490;19;20476;-29